Sheng Jia 1 — XUGG7 — position and weather

sailwx.info

Track history (hours):
 
Tides and Currents Weather Stations Pressure Air Temp Water Temp Dewpoint Dewpoint Depression Visibility Wind Speed Wind Dir Waves Ship Positions

Sheng Jia 1

Last reported at 2014-Nov-23 01:33 UTC. Time now 2014-Nov-23 10:01 UTC.
Position N 30°12' E 121°46'.

Length 73 m; draft 4.5 m.

Type: Cargo ship. MMSI: 515744000.

Date/timePositionNaut miles runAvg speedWind from/ knotsBaromVisibWave heightAir tempDewpointWater temp
2014-Nov-23 01:33N 30°12' E 121°46'0 0.0
2014-Nov-23 00:29N 30°12' E 121°46'5 5.4
2014-Nov-22 23:33N 30°17' E 121°47'16 8.0
2014-Nov-22 21:33N 30°28' E 122°00'7 6.7
2014-Nov-22 20:33N 30°31' E 122°07'5 5.2
2014-Nov-22 19:33N 30°34' E 122°12'5 4.7
2014-Nov-22 18:29N 30°34' E 122°18'428 8.2
2014-Nov-20 14:33N 33°41' E 129°53'8 8.1
2014-Nov-20 13:32N 33°45' E 130°02'10 8.0
2014-Nov-20 12:17N 33°50' E 130°12'  
2014-Nov-17 12:12N 35°10' E 139°44'5 7.0
2014-Nov-17 11:27N 35°14' E 139°46'7 8.2
2014-Nov-17 10:33N 35°21' E 139°42'7 7.3
2014-Nov-17 09:33N 35°27' E 139°47'  
2014-Nov-14 18:21N 35°32' E 139°56'7 8.7
2014-Nov-14 17:33N 35°27' E 139°50'8 8.4
2014-Nov-14 16:33N 35°20' E 139°44'8 7.6
2014-Nov-14 15:32N 35°12' E 139°47'  
Track history (hours):
 
Tides and Currents Weather Stations Pressure Air Temp Water Temp Dewpoint Dewpoint Depression Visibility Wind Speed Wind Dir Waves Ship Positions

Sheng Jia 1

Last reported at 2014-Nov-23 01:33 UTC. Time now 2014-Nov-23 10:01 UTC.
Position N 30°12' E 121°46'.

Length 73 m; draft 4.5 m.

Type: Cargo ship. MMSI: 515744000.

Date/timePositionNaut miles runAvg speedWind from/ knotsBaromVisibWave heightAir tempDewpointWater temp
2014-Nov-23 01:33N 30°12' E 121°46'0 0.0
2014-Nov-23 00:29N 30°12' E 121°46'5 5.4
2014-Nov-22 23:33N 30°17' E 121°47'16 8.0
2014-Nov-22 21:33N 30°28' E 122°00'7 6.7
2014-Nov-22 20:33N 30°31' E 122°07'5 5.2
2014-Nov-22 19:33N 30°34' E 122°12'5 4.7
2014-Nov-22 18:29N 30°34' E 122°18'428 8.2
2014-Nov-20 14:33N 33°41' E 129°53'8 8.1
2014-Nov-20 13:32N 33°45' E 130°02'10 8.0
2014-Nov-20 12:17N 33°50' E 130°12'  
2014-Nov-17 12:12N 35°10' E 139°44'5 7.0
2014-Nov-17 11:27N 35°14' E 139°46'7 8.2
2014-Nov-17 10:33N 35°21' E 139°42'7 7.3
2014-Nov-17 09:33N 35°27' E 139°47'  
2014-Nov-14 18:21N 35°32' E 139°56'7 8.7
2014-Nov-14 17:33N 35°27' E 139°50'8 8.4
2014-Nov-14 16:33N 35°20' E 139°44'8 7.6
2014-Nov-14 15:32N 35°12' E 139°47'  

Dump ship's entire track history